Des Moines, Iowa
Current Conditions -  °F | °C
As of 2:54 AM on Friday 28 Nov 2014 (Local Time) from KDSM Reporting Station
Few Clouds Few Clouds  
Wind Chill:   Ceiling: Unl
Heat Index: 20°   Visibility: 10mi
Dew Point: 13°   Wind: 13mph
Humidity: 74%   Direction: 140°SE
Pressure: 30.12"   Gusts: NA
Location:  41.59°N, 93.61°W
Report Text: KDSM 280854Z 14011KT 10SM FEW110 M07/M11 A3012 RMK AO2 SLP214 T10671106 56049
Loading
Personal Weather Stations






























Interactive Weather Map New forecast layout! Learn more

10-Day Weather Forecast

Advertisements
Track Severe Weather on mobile